Time;durP1;ratioP1;P1;durP2;ratioP2;P2;SDS_P1;SDS_P2;PMS_P1;PMS_P2;Temp;Humidity;BMP_temperature;BMP_pressure;BME280_temperature;BME280_humidity;BME280_pressure;Samples;Min_cycle;Max_cycle;Signal;HPM_P1;HPM_P2
2023/05/28 00:01:37;;;;;;;16.40;3.53;;;;;;;11.47;100.00;98904.91;5096920;28;20135;-78
2023/05/28 00:04:03;;;;;;;11.00;2.97;;;;;;;11.41;100.00;98895.72;5097030;28;20024;-74
2023/05/28 00:06:28;;;;;;;6.97;2.95;;;;;;;11.48;100.00;98906.59;5110301;28;20362;-75
2023/05/28 00:08:53;;;;;;;9.40;3.22;;;;;;;11.60;100.00;98921.16;5094534;28;20051;-76
2023/05/28 00:11:18;;;;;;;10.02;3.72;;;;;;;11.33;100.00;98905.94;5113756;28;20482;-75
2023/05/28 00:13:44;;;;;;;7.70;3.03;;;;;;;11.22;100.00;98876.75;5093421;28;20047;-75
2023/05/28 00:16:12;;;;;;;8.93;3.30;;;;;;;11.14;100.00;98897.56;5110475;28;20034;-74
2023/05/28 00:18:38;;;;;;;8.38;3.42;;;;;;;11.08;100.00;98900.25;5101529;28;20047;-75
2023/05/28 00:21:03;;;;;;;9.20;3.20;;;;;;;10.99;100.00;98880.66;5095637;28;20470;-74
2023/05/28 00:23:28;;;;;;;5.43;2.72;;;;;;;10.98;100.00;98887.13;5084042;28;20441;-74
2023/05/28 00:25:54;;;;;;;12.20;3.50;;;;;;;11.00;100.00;98903.97;5092535;28;20122;-75
2023/05/28 00:28:19;;;;;;;8.75;3.38;;;;;;;11.00;100.00;98909.38;5098122;28;20028;-74
2023/05/28 00:30:45;;;;;;;7.50;3.22;;;;;;;10.78;100.00;98888.91;5109808;28;20081;-75
2023/05/28 00:33:10;;;;;;;12.63;3.13;;;;;;;10.69;100.00;98886.38;5112250;28;20022;-75
2023/05/28 00:35:35;;;;;;;8.55;3.53;;;;;;;10.58;100.00;98883.41;5111643;28;20365;-74
2023/05/28 00:38:00;;;;;;;7.28;3.50;;;;;;;10.68;100.00;98900.94;5097700;28;20068;-75
2023/05/28 00:40:26;;;;;;;8.40;3.28;;;;;;;10.62;100.00;98888.22;5113863;28;20027;-74
2023/05/28 00:42:51;;;;;;;7.55;3.60;;;;;;;10.60;100.00;98874.06;5093310;28;20375;-76
2023/05/28 00:45:28;;;;;;;10.00;3.33;;;;;;;10.68;100.00;98906.34;5099065;28;20035;-78
2023/05/28 00:47:54;;;;;;;8.07;3.38;;;;;;;10.57;100.00;98898.81;5106263;28;20109;-76
2023/05/28 00:50:20;;;;;;;13.80;4.13;;;;;;;10.42;100.00;98887.28;5097804;28;20455;-73
2023/05/28 00:52:46;;;;;;;11.60;3.88;;;;;;;10.50;100.00;98914.16;5096533;28;20542;-73
2023/05/28 00:55:16;;;;;;;12.23;3.63;;;;;;;10.41;100.00;98907.28;5081717;28;20473;-73
2023/05/28 00:57:41;;;;;;;;;;;;;;;10.41;100.00;98913.50;5113538;28;20149;-75
2023/05/28 01:00:08;;;;;;;8.43;3.53;;;;;;;10.30;100.00;98897.84;5094274;28;20088;-76
2023/05/28 01:02:33;;;;;;;8.43;3.22;;;;;;;10.09;100.00;98875.22;5088132;28;20027;-74
2023/05/28 01:04:59;;;;;;;9.52;4.03;;;;;;;10.22;100.00;98893.41;5093785;28;20016;-77
2023/05/28 01:07:24;;;;;;;10.73;3.55;;;;;;;10.14;100.00;98877.34;5094630;28;20110;-76
2023/05/28 01:09:52;;;;;;;7.00;3.63;;;;;;;10.17;100.00;98890.47;5093090;28;20118;-77
2023/05/28 01:12:18;;;;;;;6.97;3.10;;;;;;;10.22;100.00;98893.41;5090755;28;20026;-76
2023/05/28 01:14:44;;;;;;;11.65;3.63;;;;;;;10.18;100.00;98897.53;5114066;28;20016;-76
2023/05/28 01:17:09;;;;;;;10.02;3.53;;;;;;;9.68;100.00;98829.22;5111882;28;20020;-77
2023/05/28 01:19:35;;;;;;;11.43;3.58;;;;;;;9.48;100.00;98798.53;5093594;28;20054;-74
2023/05/28 01:22:15;;;;;;;7.95;3.60;;;;;;;9.75;100.00;98832.81;5094952;28;20214;-75
2023/05/28 01:24:41;;;;;;;7.95;3.17;;;;;;;9.93;100.00;98877.38;5085658;28;20016;-75
2023/05/28 01:27:06;;;;;;;10.00;3.13;;;;;;;9.92;100.00;98884.66;5097050;28;20068;-75
2023/05/28 01:29:32;;;;;;;10.02;3.92;;;;;;;9.78;100.00;98858.59;5089795;28;20027;-76
2023/05/28 01:31:57;;;;;;;8.65;3.28;;;;;;;9.77;100.00;98876.69;5097560;28;20016;-81
2023/05/28 01:34:24;;;;;;;8.48;3.58;;;;;;;9.93;100.00;98904.41;5095913;28;20420;-75
2023/05/28 01:37:02;;;;;;;13.27;3.60;;;;;;;9.76;100.00;98899.31;5097287;28;20027;-75
2023/05/28 01:39:32;;;;;;;8.77;3.50;;;;;;;9.72;100.00;98889.94;5109843;28;20031;-75
2023/05/28 01:41:58;;;;;;;9.10;3.60;;;;;;;9.74;100.00;98876.22;5078235;28;20019;-77
2023/05/28 01:44:24;;;;;;;8.88;3.47;;;;;;;9.84;100.00;98896.47;5093304;28;20061;-77
2023/05/28 01:46:53;;;;;;;8.75;3.90;;;;;;;9.72;100.00;98868.31;5108983;28;20027;-78
2023/05/28 01:49:19;;;;;;;8.55;3.88;;;;;;;9.70;100.00;98880.38;5091542;28;20045;-76
2023/05/28 01:51:45;;;;;;;7.07;3.10;;;;;;;9.61;100.00;98896.69;5092995;28;20106;-75
2023/05/28 01:54:10;;;;;;;8.05;3.17;;;;;;;9.41;100.00;98879.50;5094508;28;20163;-78
2023/05/28 01:56:35;;;;;;;7.85;3.40;;;;;;;9.60;100.00;98902.31;5092947;28;20032;-75
2023/05/28 01:59:02;;;;;;;11.30;3.88;;;;;;;9.44;100.00;98890.72;5093618;28;20366;-75
2023/05/28 02:01:30;;;;;;;13.35;3.55;;;;;;;9.36;100.00;98880.06;5104748;28;20124;-75
2023/05/28 02:03:56;;;;;;;9.40;3.83;;;;;;;9.44;100.00;98904.25;5096211;28;20020;-75
2023/05/28 02:06:23;;;;;;;10.27;3.70;;;;;;;9.51;100.00;98900.75;5096301;28;20054;-75
2023/05/28 02:08:48;;;;;;;6.63;3.13;;;;;;;9.39;100.00;98873.44;5096051;28;20480;-75
2023/05/28 02:11:13;;;;;;;7.50;3.55;;;;;;;9.21;100.00;98849.59;5096005;28;20024;-75
2023/05/28 02:13:39;;;;;;;9.25;3.75;;;;;;;9.50;100.00;98896.38;5110128;28;20028;-77
2023/05/28 02:16:05;;;;;;;9.15;3.50;;;;;;;9.36;100.00;98890.88;5092735;28;20054;-75
2023/05/28 02:18:31;;;;;;;11.93;4.03;;;;;;;9.27;100.00;98892.00;5095503;28;20031;-76
2023/05/28 02:20:57;;;;;;;5.50;3.25;;;;;;;9.16;100.00;98879.03;5094482;28;20023;-77
2023/05/28 02:23:23;;;;;;;10.13;3.88;;;;;;;8.89;100.00;98835.59;5075728;28;20015;-75
2023/05/28 02:25:48;;;;;;;14.32;4.03;;;;;;;8.98;100.00;98845.22;5100499;28;20051;-75
2023/05/28 02:28:13;;;;;;;7.68;3.60;;;;;;;9.06;100.00;98865.84;5075581;28;20027;-75
2023/05/28 02:30:38;;;;;;;9.68;3.65;;;;;;;9.14;100.00;98887.34;5089780;28;20048;-75
2023/05/28 02:33:04;;;;;;;10.95;4.10;;;;;;;8.73;100.00;98822.34;5075400;28;20055;-75
2023/05/28 02:35:30;;;;;;;11.88;3.97;;;;;;;8.91;100.00;98863.22;5087091;28;20024;-75
2023/05/28 02:37:56;;;;;;;9.27;4.05;;;;;;;8.71;100.00;98838.72;5075863;28;20028;-76
2023/05/28 02:40:21;;;;;;;5.13;3.35;;;;;;;8.60;100.00;98833.00;5088636;28;20477;-75
2023/05/28 02:42:46;;;;;;;13.13;3.90;;;;;;;8.85;100.00;98900.91;5095404;28;20027;-75
2023/05/28 02:45:12;;;;;;;10.07;4.03;;;;;;;8.66;100.00;98848.41;5085527;27;20097;-77
2023/05/28 02:47:37;;;;;;;8.65;3.78;;;;;;;8.68;100.00;98862.53;5132379;27;20491;-75
2023/05/28 02:50:03;;;;;;;10.25;3.80;;;;;;;8.69;100.00;98867.72;5105994;28;20489;-75
2023/05/28 02:52:28;;;;;;;9.25;4.15;;;;;;;8.55;100.00;98850.56;5096966;28;20024;-75
2023/05/28 02:54:53;;;;;;;11.82;4.35;;;;;;;8.66;100.00;98862.72;5089657;28;20032;-77
2023/05/28 02:57:19;;;;;;;13.00;4.28;;;;;;;8.71;100.00;98864.88;5112432;28;20270;-75
2023/05/28 02:59:51;;;;;;;10.48;4.32;;;;;;;8.53;100.00;98863.41;5113272;28;20081;-75
2023/05/28 03:02:17;;;;;;;10.65;4.28;;;;;;;8.60;100.00;98878.84;5095773;28;20023;-75
2023/05/28 03:04:42;;;;;;;13.77;4.40;;;;;;;8.54;100.00;98877.72;5113077;28;20020;-77
2023/05/28 03:07:08;;;;;;;11.65;3.90;;;;;;;8.49;100.00;98880.16;5095083;28;20019;-75
2023/05/28 03:09:33;;;;;;;12.30;4.78;;;;;;;8.30;100.00;98860.78;5095248;28;20118;-76
2023/05/28 03:11:58;;;;;;;8.98;4.22;;;;;;;8.54;100.00;98894.75;5103343;28;20481;-76
2023/05/28 03:14:24;;;;;;;10.38;4.15;;;;;;;8.53;100.00;98878.75;5082244;28;20426;-74
2023/05/28 03:16:49;;;;;;;14.93;4.38;;;;;;;8.17;100.00;98835.53;5106882;28;20503;-75
2023/05/28 03:19:15;;;;;;;10.55;3.92;;;;;;;8.28;100.00;98878.19;5094770;28;20023;-74
2023/05/28 03:21:40;;;;;;;18.15;5.32;;;;;;;8.21;100.00;98878.09;5095471;28;20469;-75
2023/05/28 03:24:06;;;;;;;8.18;4.07;;;;;;;8.07;100.00;98858.22;5112886;28;20055;-75
2023/05/28 03:26:31;;;;;;;11.27;4.25;;;;;;;8.01;100.00;98871.59;5112051;28;20031;-75
2023/05/28 03:28:57;;;;;;;8.45;4.15;;;;;;;8.10;100.00;98906.34;5074890;28;20120;-77
2023/05/28 03:31:29;;;;;;;11.07;5.15;;;;;;;7.88;100.00;98867.66;5111957;28;20059;-75
2023/05/28 03:33:55;;;;;;;12.20;4.25;;;;;;;8.18;100.00;98899.19;5111595;28;20036;-75
2023/05/28 03:36:21;;;;;;;9.18;4.38;;;;;;;8.26;100.00;98891.03;5095040;28;20019;-76
2023/05/28 03:38:46;;;;;;;11.77;4.35;;;;;;;8.05;100.00;98859.44;5112120;28;20024;-75
2023/05/28 03:41:12;;;;;;;7.93;3.88;;;;;;;8.01;100.00;98853.56;5095236;28;20160;-76
2023/05/28 03:43:37;;;;;;;7.20;3.55;;;;;;;8.23;100.00;98886.84;5111911;28;20023;-77
2023/05/28 03:46:02;;;;;;;10.15;4.05;;;;;;;8.24;100.00;98885.81;5094884;28;20127;-76
2023/05/28 03:48:28;;;;;;;11.70;3.92;;;;;;;8.40;100.00;98895.59;5094600;28;20100;-76
2023/05/28 03:50:53;;;;;;;10.35;4.38;;;;;;;8.32;100.00;98887.56;5094902;28;20165;-76
2023/05/28 03:53:18;;;;;;;8.07;4.30;;;;;;;7.95;100.00;98821.97;5102776;28;20027;-76
2023/05/28 03:55:44;;;;;;;11.95;5.28;;;;;;;8.26;100.00;98864.06;5097543;28;20020;-76
2023/05/28 03:58:14;;;;;;;11.73;4.75;;;;;;;8.29;100.00;98861.81;5094547;28;20027;-76
2023/05/28 04:00:39;;;;;;;16.70;4.32;;;;;;;8.46;100.00;98870.59;5094294;28;20024;-76
2023/05/28 04:03:04;;;;;;;13.35;4.38;;;;;;;8.68;100.00;98893.03;5096447;28;20023;-76
2023/05/28 04:05:30;;;;;;;9.50;3.97;;;;;;;8.77;100.00;98896.47;5100131;28;20020;-77
2023/05/28 04:07:56;;;;;;;11.00;4.40;;;;;;;8.42;100.00;98831.53;5096245;28;20391;-78
2023/05/28 04:10:21;;;;;;;9.68;4.38;;;;;;;8.87;100.00;98904.25;5097128;28;20031;-76
2023/05/28 04:12:46;;;;;;;10.05;3.72;;;;;;;8.96;100.00;98898.56;5098782;28;20032;-76
2023/05/28 04:15:11;;;;;;;13.30;5.13;;;;;;;8.91;100.00;98857.84;5095778;28;20024;-76
2023/05/28 04:17:37;;;;;;;10.35;4.07;;;;;;;9.06;100.00;98865.03;5113931;28;20023;-76
2023/05/28 04:20:05;;;;;;;14.18;4.55;;;;;;;9.18;100.00;98885.91;5088650;23;20101;-54
2023/05/28 04:22:31;;;;;;;9.85;3.90;;;;;;;9.24;100.00;98888.88;5095441;28;20031;-60
2023/05/28 04:24:56;;;;;;;9.93;3.70;;;;;;;9.29;100.00;98899.94;5074463;28;20089;-59
2023/05/28 04:27:23;;;;;;;7.20;3.78;;;;;;;9.30;100.00;98894.34;5092856;28;20112;-59
2023/05/28 04:29:48;;;;;;;10.48;3.65;;;;;;;9.27;100.00;98885.78;5080266;28;20111;-59
2023/05/28 04:32:14;;;;;;;8.05;3.70;;;;;;;9.24;100.00;98896.97;5096212;28;20107;-59
2023/05/28 04:34:42;;;;;;;9.23;3.47;;;;;;;9.31;100.00;98895.19;5093436;28;20455;-59
2023/05/28 04:37:08;;;;;;;7.28;3.45;;;;;;;9.39;100.00;98895.88;5081432;28;20032;-59
2023/05/28 04:39:34;;;;;;;9.43;3.50;;;;;;;9.57;100.00;98897.28;5085608;28;20115;-59
2023/05/28 04:42:03;;;;;;;11.65;3.78;;;;;;;9.78;100.00;98894.56;5082019;28;20075;-59
2023/05/28 04:44:30;;;;;;;7.75;3.85;;;;;;;9.98;100.00;98910.06;5095112;28;20030;-59
2023/05/28 04:46:58;;;;;;;8.48;3.83;;;;;;;10.03;100.00;98908.47;5091884;28;20024;-60
2023/05/28 04:49:25;;;;;;;8.40;4.40;;;;;;;10.07;100.00;98915.13;5088545;28;20035;-60
2023/05/28 04:51:50;;;;;;;9.60;3.83;;;;;;;10.19;100.00;98918.16;5093291;28;20036;-60
2023/05/28 04:54:16;;;;;;;7.13;3.95;;;;;;;10.25;100.00;98909.22;5089257;28;20023;-60
2023/05/28 04:56:41;;;;;;;9.57;4.03;;;;;;;10.47;100.00;98909.16;5091582;28;20122;-60
2023/05/28 04:59:09;;;;;;;17.52;4.32;;;;;;;10.52;100.00;98914.81;5077525;28;20110;-60
2023/05/28 05:01:38;;;;;;;11.40;4.30;;;;;;;10.68;100.00;98921.75;5083523;28;20038;-60
2023/05/28 05:04:05;;;;;;;7.70;3.88;;;;;;;10.79;100.00;98913.06;5091890;28;20058;-60
2023/05/28 05:06:31;;;;;;;7.43;3.92;;;;;;;10.92;100.00;98912.28;5085011;28;20034;-60
2023/05/28 05:08:56;;;;;;;7.35;3.65;;;;;;;11.09;100.00;98918.19;5088654;28;20118;-60
2023/05/28 05:11:22;;;;;;;7.50;3.63;;;;;;;11.15;100.00;98907.34;5087148;28;20122;-60
2023/05/28 05:13:47;;;;;;;9.57;3.95;;;;;;;11.22;100.00;98910.09;5092145;28;20466;-60
2023/05/28 05:16:13;;;;;;;12.55;3.85;;;;;;;11.25;100.00;98914.25;5091925;28;20055;-60
2023/05/28 05:18:39;;;;;;;10.98;4.07;;;;;;;11.26;100.00;98905.09;5096818;28;20031;-60
2023/05/28 05:21:04;;;;;;;10.98;4.22;;;;;;;11.53;100.00;98909.50;5094420;28;20110;-60
2023/05/28 05:23:30;;;;;;;11.98;4.32;;;;;;;11.77;100.00;98909.94;5096817;28;20062;-60
2023/05/28 05:25:55;;;;;;;8.30;3.72;;;;;;;11.96;100.00;98911.84;5089837;28;20055;-60
2023/05/28 05:28:21;;;;;;;10.38;3.72;;;;;;;12.31;100.00;98911.56;5096389;28;20036;-60
2023/05/28 05:30:47;;;;;;;8.13;3.90;;;;;;;12.63;100.00;98907.13;5096648;28;20058;-62
2023/05/28 05:33:12;;;;;;;15.27;4.00;;;;;;;12.94;100.00;98905.50;5083576;28;20410;-62
2023/05/28 05:35:38;;;;;;;10.02;4.13;;;;;;;13.19;100.00;98912.94;5106737;28;21341;-61
2023/05/28 05:38:03;;;;;;;11.48;3.85;;;;;;;13.35;100.00;98913.25;5075120;28;20024;-62
2023/05/28 05:40:29;;;;;;;8.52;3.38;;;;;;;13.47;100.00;98901.72;5086042;28;20355;-62
2023/05/28 05:42:54;;;;;;;8.95;3.75;;;;;;;13.75;100.00;98907.56;5081796;28;20023;-62
2023/05/28 05:45:20;;;;;;;8.73;3.92;;;;;;;13.81;100.00;98905.84;5077077;28;20035;-62
2023/05/28 05:47:46;;;;;;;9.15;3.80;;;;;;;13.96;100.00;98914.50;5079325;28;20024;-62
2023/05/28 05:50:14;;;;;;;11.07;4.10;;;;;;;14.22;100.00;98907.97;5089882;28;20020;-62
2023/05/28 05:52:40;;;;;;;9.65;3.45;;;;;;;14.50;100.00;98919.44;5084191;28;20141;-62
2023/05/28 05:55:07;;;;;;;10.88;4.05;;;;;;;14.71;100.00;98916.28;5083762;28;20107;-62
2023/05/28 05:57:33;;;;;;;10.77;3.67;;;;;;;14.81;100.00;98913.03;5095722;28;20036;-62
2023/05/28 05:59:59;;;;;;;7.80;3.70;;;;;;;15.21;100.00;98909.78;5075861;28;20019;-62
2023/05/28 06:02:25;;;;;;;8.85;4.57;;;;;;;15.47;100.00;98914.03;5079897;28;20088;-62
2023/05/28 06:04:51;;;;;;;8.82;3.70;;;;;;;15.62;100.00;98916.31;5085475;28;20034;-62
2023/05/28 06:07:17;;;;;;;7.10;3.60;;;;;;;15.56;100.00;98910.75;5094504;28;20031;-62
2023/05/28 06:09:43;;;;;;;7.45;3.25;;;;;;;15.74;100.00;98919.94;5092252;28;20034;-62
2023/05/28 06:12:08;;;;;;;12.75;3.92;;;;;;;16.31;100.00;98919.41;5090569;28;20039;-62
2023/05/28 06:14:34;;;;;;;9.20;3.55;;;;;;;16.08;100.00;98912.03;5094284;28;20028;-62
2023/05/28 06:16:59;;;;;;;8.63;3.70;;;;;;;16.67;100.00;98910.09;5094739;28;20773;-62
2023/05/28 06:19:25;;;;;;;5.68;3.08;;;;;;;17.09;100.00;98901.69;5086935;28;20443;-62
2023/05/28 06:21:51;;;;;;;12.70;3.65;;;;;;;17.07;100.00;98906.56;5077177;28;20032;-62
2023/05/28 06:24:17;;;;;;;5.90;3.53;;;;;;;17.26;100.00;98905.31;5083305;28;20037;-62
2023/05/28 06:26:42;;;;;;;7.53;3.47;;;;;;;17.72;100.00;98900.66;5074840;28;20081;-63
2023/05/28 06:29:09;;;;;;;13.40;3.63;;;;;;;17.71;100.00;98909.97;5083360;28;20032;-63
2023/05/28 06:31:35;;;;;;;8.32;3.50;;;;;;;18.23;100.00;98902.59;5084027;28;20103;-62
2023/05/28 06:34:01;;;;;;;8.90;3.28;;;;;;;18.80;100.00;98905.06;5081661;28;20102;-63
2023/05/28 06:36:27;;;;;;;8.38;3.30;;;;;;;19.04;100.00;98905.63;5081968;28;20059;-63
2023/05/28 06:38:52;;;;;;;7.78;3.25;;;;;;;20.16;100.00;98896.88;5085049;28;20483;-63
2023/05/28 06:41:17;;;;;;;13.07;3.83;;;;;;;21.28;92.41;98899.38;5086190;28;20092;-63
2023/05/28 06:43:43;;;;;;;9.50;3.40;;;;;;;23.88;74.09;98891.66;5082854;28;20052;-63
2023/05/28 06:46:08;;;;;;;7.32;3.15;;;;;;;25.39;65.82;98897.78;5090048;28;20028;-63
2023/05/28 06:48:34;;;;;;;8.02;4.03;;;;;;;26.48;58.80;98894.91;5080368;28;20446;-63
2023/05/28 06:50:59;;;;;;;7.72;3.50;;;;;;;27.29;52.86;98892.50;5101554;28;20039;-63
2023/05/28 06:53:25;;;;;;;10.70;3.08;;;;;;;28.56;50.29;98898.91;5084506;28;20024;-64
2023/05/28 06:55:52;;;;;;;8.02;3.55;;;;;;;29.21;46.77;98883.41;5072182;28;20093;-63
2023/05/28 06:58:17;;;;;;;10.45;3.78;;;;;;;30.10;44.56;98881.16;5083597;28;20024;-64
2023/05/28 07:00:43;;;;;;;9.70;3.38;;;;;;;31.58;42.92;98884.16;5085731;28;20522;-64
2023/05/28 07:03:08;;;;;;;7.07;3.03;;;;;;;32.27;41.78;98881.91;5089472;28;20493;-64
2023/05/28 07:05:35;;;;;;;10.45;3.78;;;;;;;32.72;41.01;98889.47;5094995;28;20418;-64
2023/05/28 07:08:01;;;;;;;6.80;3.13;;;;;;;33.75;39.75;98880.78;5112628;28;20030;-64
2023/05/28 07:10:26;;;;;;;9.23;3.35;;;;;;;33.66;37.81;98884.88;5092677;28;20027;-64
2023/05/28 07:12:52;;;;;;;5.72;2.80;;;;;;;35.30;36.87;98891.31;5084287;28;20040;-64
2023/05/28 07:15:17;;;;;;;7.15;2.92;;;;;;;35.35;35.79;98891.03;5086962;28;20034;-64
2023/05/28 07:17:43;;;;;;;6.93;3.10;;;;;;;34.26;36.12;98891.44;5093872;28;20208;-64
2023/05/28 07:20:09;;;;;;;5.72;3.10;;;;;;;35.87;34.93;98886.13;5087899;28;20455;-62
2023/05/28 07:22:35;;;;;;;9.18;3.53;;;;;;;35.10;34.17;98885.63;5082825;28;20110;-64
2023/05/28 07:25:00;;;;;;;5.60;2.97;;;;;;;35.06;34.49;98887.53;5082036;28;20152;-63
2023/05/28 07:27:26;;;;;;;9.70;3.05;;;;;;;34.59;35.03;98884.75;5083828;28;20491;-64
2023/05/28 07:29:51;;;;;;;5.85;3.17;;;;;;;34.81;33.91;98889.69;5083978;28;20455;-62
2023/05/28 07:32:16;;;;;;;9.68;3.20;;;;;;;34.17;34.00;98888.00;5081571;28;20027;-62
2023/05/28 07:34:42;;;;;;;5.85;2.60;;;;;;;36.01;32.66;98889.25;5089010;28;20028;-62
2023/05/28 07:37:07;;;;;;;6.97;3.15;;;;;;;35.77;32.83;98891.19;5083332;28;20038;-63
2023/05/28 07:39:33;;;;;;;5.00;2.80;;;;;;;35.09;32.57;98886.81;5083712;28;20467;-62
2023/05/28 07:41:58;;;;;;;11.00;3.33;;;;;;;35.64;32.67;98892.50;5084842;28;20454;-62
2023/05/28 07:44:23;;;;;;;5.55;2.60;;;;;;;35.98;31.95;98892.81;5099571;28;20016;-62
2023/05/28 07:46:49;;;;;;;6.13;2.45;;;;;;;37.69;31.73;98883.69;5094892;28;20032;-63
2023/05/28 07:49:16;;;;;;;6.70;2.88;;;;;;;37.05;30.76;98894.84;5093239;28;20028;-63
2023/05/28 07:51:42;;;;;;;4.97;2.60;;;;;;;38.24;30.37;98890.84;5089815;28;20016;-63
2023/05/28 07:54:07;;;;;;;8.13;2.85;;;;;;;37.45;30.14;98892.63;5084474;28;20500;-63
2023/05/28 07:56:32;;;;;;;5.90;2.70;;;;;;;38.01;29.59;98891.78;5086858;28;20111;-63
2023/05/28 07:58:58;;;;;;;4.95;2.70;;;;;;;38.03;29.09;98883.75;5092433;28;20037;-63
2023/05/28 08:01:23;;;;;;;6.35;3.10;;;;;;;38.17;28.74;98888.72;5106420;28;20042;-63
2023/05/28 08:03:51;;;;;;;7.22;2.88;;;;;;;36.96;30.03;98891.44;5082220;28;20020;-63
2023/05/28 08:06:18;;;;;;;11.47;3.50;;;;;;;37.25;29.54;98884.25;5091626;28;20040;-62
2023/05/28 08:08:43;;;;;;;8.30;2.83;;;;;;;36.62;30.04;98885.63;5091508;28;20051;-62
2023/05/28 08:11:10;;;;;;;11.43;3.17;;;;;;;36.83;29.84;98888.00;5080141;28;20051;-62
2023/05/28 08:13:36;;;;;;;5.57;2.40;;;;;;;38.65;28.92;98880.38;5075866;28;20459;-63
2023/05/28 08:16:02;;;;;;;5.80;2.80;;;;;;;37.91;29.17;98870.66;5093199;28;20011;-63
2023/05/28 08:18:28;;;;;;;8.88;3.15;;;;;;;38.75;28.42;98870.34;5084969;28;20028;-63
2023/05/28 08:20:53;;;;;;;5.95;2.90;;;;;;;39.54;27.63;98868.09;5091121;28;20463;-63
2023/05/28 08:23:19;;;;;;;5.95;3.03;;;;;;;38.62;27.70;98875.50;5078839;28;20052;-62
2023/05/28 08:25:45;;;;;;;7.22;2.95;;;;;;;39.04;27.48;98865.78;5084532;28;20019;-63
2023/05/28 08:28:10;;;;;;;8.32;3.00;;;;;;;38.87;27.27;98870.03;5079845;28;20099;-62
2023/05/28 08:30:36;;;;;;;6.50;2.88;;;;;;;36.38;29.34;98869.88;5083553;28;20111;-62
2023/05/28 08:33:02;;;;;;;7.78;2.75;;;;;;;36.08;30.10;98872.53;5094406;28;20467;-62
2023/05/28 08:35:27;;;;;;;8.57;2.75;;;;;;;37.12;28.71;98868.75;5085167;28;20514;-62
2023/05/28 08:37:52;;;;;;;7.10;2.75;;;;;;;37.55;28.47;98868.59;5078173;28;20364;-62
2023/05/28 08:40:18;;;;;;;6.03;3.10;;;;;;;36.61;28.09;98867.09;5096306;28;20418;-62
2023/05/28 08:42:44;;;;;;;7.57;2.75;;;;;;;37.78;28.53;98854.34;5097612;28;20040;-62
2023/05/28 08:45:10;;;;;;;5.57;2.40;;;;;;;39.20;26.85;98854.16;5082823;28;20019;-62
2023/05/28 08:47:36;;;;;;;9.23;3.00;;;;;;;38.58;27.79;98852.84;5075690;28;20028;-62
2023/05/28 08:50:06;;;;;;;7.28;2.65;;;;;;;39.69;28.01;98852.81;5076040;28;20519;-62
2023/05/28 08:52:33;;;;;;;5.57;2.55;;;;;;;40.99;27.67;98853.91;5078142;28;20455;-62
2023/05/28 08:54:59;;;;;;;6.53;2.72;;;;;;;40.40;26.14;98849.41;5081781;28;20016;-62
2023/05/28 08:57:25;;;;;;;8.38;2.50;;;;;;;41.45;25.95;98841.66;5092970;28;20043;-62
2023/05/28 08:59:53;;;;;;;6.88;3.08;;;;;;;41.37;26.43;98835.19;5087456;28;20052;-62
2023/05/28 09:02:20;;;;;;;;;;;;;;;41.63;25.81;98836.75;5095299;28;20061;-62
2023/05/28 09:04:46;;;;;;;4.93;2.50;;;;;;;40.05;25.96;98833.94;5095655;28;20367;-62
2023/05/28 09:07:12;;;;;;;7.85;2.63;;;;;;;40.39;26.57;98836.47;5083567;28;20123;-62
2023/05/28 09:09:39;;;;;;;5.22;2.40;;;;;;;38.89;26.66;98828.06;5081406;28;20024;-62
2023/05/28 09:12:07;;;;;;;5.68;2.67;;;;;;;38.90;27.10;98824.03;5076655;28;20038;-62
2023/05/28 09:14:41;;;;;;;8.80;2.78;;;;;;;37.94;27.96;98823.91;5076870;28;20039;-61
2023/05/28 09:17:13;;;;;;;5.63;2.75;;;;;;;38.32;28.38;98822.69;5077061;28;20386;-61
2023/05/28 09:19:39;;;;;;;7.55;2.90;;;;;;;38.36;29.08;98820.72;5083258;28;20032;-61
2023/05/28 09:22:04;;;;;;;8.52;2.67;;;;;;;38.70;27.91;98814.13;5091670;28;20031;-62
2023/05/28 09:24:30;;;;;;;9.02;2.70;;;;;;;39.34;27.99;98811.78;5092184;28;20728;-62
2023/05/28 09:26:57;;;;;;;6.97;2.53;;;;;;;40.61;26.90;98820.28;5081116;28;20043;-62
2023/05/28 09:29:23;;;;;;;7.95;3.00;;;;;;;40.46;26.77;98810.16;5076193;28;20038;-62
2023/05/28 09:31:55;;;;;;;7.90;2.78;;;;;;;40.89;27.11;98812.97;5075700;28;20035;-62
2023/05/28 09:34:20;;;;;;;4.97;2.40;;;;;;;41.70;26.96;98810.38;5072580;28;20028;-62
2023/05/28 09:36:46;;;;;;;6.18;2.65;;;;;;;41.26;27.20;98812.50;5088156;28;20478;-62
2023/05/28 09:39:11;;;;;;;5.30;2.67;;;;;;;41.69;27.18;98800.22;5088953;28;20015;-62
2023/05/28 09:41:43;;;;;;;3.92;2.70;;;;;;;42.01;26.90;98800.88;5078225;28;20059;-63
2023/05/28 09:44:10;;;;;;;6.57;2.90;;;;;;;42.42;25.71;98803.06;5080911;28;20020;-62
2023/05/28 09:46:36;;;;;;;5.57;2.80;;;;;;;41.49;26.57;98799.88;5081896;28;20081;-62
2023/05/28 09:49:03;;;;;;;5.30;2.70;;;;;;;40.66;27.59;98802.84;5086030;28;20471;-62
2023/05/28 09:51:30;;;;;;;11.00;2.70;;;;;;;42.61;26.50;98798.84;5089322;28;20041;-62
2023/05/28 09:54:01;;;;;;;6.18;2.70;;;;;;;42.44;26.25;98802.63;5085138;28;20036;-62
2023/05/28 09:56:31;;;;;;;7.07;2.83;;;;;;;43.23;26.30;98794.22;5076355;28;20040;-63
2023/05/28 09:58:58;;;;;;;4.57;2.38;;;;;;;42.33;25.62;98799.03;5084896;28;20036;-62
2023/05/28 10:01:35;;;;;;;6.72;2.92;;;;;;;40.76;27.06;98804.06;5079971;28;20030;-62
2023/05/28 10:04:07;;;;;;;7.05;2.90;;;;;;;42.17;26.51;98803.22;5088549;28;20050;-62
2023/05/28 10:06:35;;;;;;;7.90;2.80;;;;;;;42.09;26.31;98798.78;5081852;28;20572;-62
2023/05/28 10:09:01;;;;;;;5.60;2.50;;;;;;;43.17;24.95;98789.38;5086983;28;20367;-62
2023/05/28 10:11:30;;;;;;;6.72;2.63;;;;;;;42.29;26.24;98792.56;5109405;28;20122;-62
2023/05/28 10:13:56;;;;;;;4.70;2.67;;;;;;;42.28;25.70;98791.75;5093326;28;20032;-62
2023/05/28 10:16:22;;;;;;;5.18;2.65;;;;;;;42.42;25.88;98794.53;5081518;28;20529;-62
2023/05/28 10:18:48;;;;;;;4.93;2.35;;;;;;;43.27;25.42;98786.41;5076830;28;20031;-62
2023/05/28 10:21:14;;;;;;;6.10;2.55;;;;;;;43.06;25.45;98786.63;5103038;22;20088;-60
2023/05/28 10:23:41;;;;;;;10.02;2.83;;;;;;;41.52;25.44;98788.53;5109242;28;20031;-61
2023/05/28 10:26:08;;;;;;;5.72;2.95;;;;;;;41.15;26.08;98772.81;5101843;28;20081;-60
2023/05/28 10:28:33;;;;;;;11.50;3.70;;;;;;;40.34;26.59;98779.34;5124039;27;20524;-61
2023/05/28 10:31:05;;;;;;;7.05;2.75;;;;;;;40.47;26.81;98772.06;5120634;27;20027;-61
2023/05/28 10:33:31;;;;;;;5.18;2.80;;;;;;;42.24;25.24;98774.72;5123842;27;20160;-61
2023/05/28 10:35:59;;;;;;;6.20;2.60;;;;;;;42.50;23.44;98768.84;5115939;27;20122;-60
2023/05/28 10:38:25;;;;;;;6.60;2.78;;;;;;;40.35;24.46;98781.78;5121725;27;20538;-61
2023/05/28 10:40:51;;;;;;;6.22;2.50;;;;;;;41.00;23.38;98776.88;5112073;27;20169;-60
2023/05/28 10:43:38;;;;;;;6.35;2.65;;;;;;;39.31;24.10;98780.63;5122930;27;20015;-60
2023/05/28 10:46:08;;;;;;;7.47;2.90;;;;;;;40.24;23.74;98780.97;5114422;27;20027;-60
2023/05/28 10:48:38;;;;;;;4.93;2.58;;;;;;;38.88;23.91;98775.50;5118360;27;20048;-60
2023/05/28 10:51:04;;;;;;;4.35;2.60;;;;;;;39.03;23.77;98769.97;5116105;27;20123;-60
2023/05/28 10:53:30;;;;;;;5.82;3.13;;;;;;;38.61;24.05;98777.72;5130564;27;20080;-60
2023/05/28 10:55:57;;;;;;;4.28;2.28;;;;;;;40.68;23.61;98772.06;5115032;27;20027;-60
2023/05/28 10:58:42;;;;;;;6.00;2.90;;;;;;;40.00;24.22;98771.19;5122358;27;20054;-61
2023/05/28 11:01:11;;;;;;;6.60;3.15;;;;;;;38.72;24.05;98767.28;5111893;27;20035;-60
2023/05/28 11:03:45;;;;;;;7.40;2.70;;;;;;;37.41;25.04;98764.75;5112727;28;20023;-60
2023/05/28 11:06:12;;;;;;;8.65;3.20;;;;;;;36.22;25.85;98779.03;5120893;27;20024;-60
2023/05/28 11:08:43;;;;;;;8.52;2.65;;;;;;;37.02;25.76;98765.00;5116668;27;20064;-60
2023/05/28 11:11:14;;;;;;;8.52;3.22;;;;;;;37.05;26.28;98769.94;5116568;28;20027;-60
2023/05/28 11:13:48;;;;;;;5.82;2.83;;;;;;;38.26;25.82;98764.91;5120769;27;20028;-61
2023/05/28 11:16:18;;;;;;;7.20;3.00;;;;;;;40.28;24.82;98759.91;5111896;27;20031;-61
2023/05/28 11:19:03;;;;;;;7.10;3.15;;;;;;;39.77;23.28;98758.19;5117888;28;20027;-61
2023/05/28 11:21:30;;;;;;;5.22;2.88;;;;;;;39.35;23.85;98745.47;5111015;28;20076;-61
2023/05/28 11:24:00;;;;;;;8.27;2.53;;;;;;;40.23;24.01;98751.81;5115438;28;20033;-61
2023/05/28 11:26:27;;;;;;;6.43;2.63;;;;;;;39.64;25.10;98756.91;5111526;28;20084;-61